ROA9557 SVMI-SABE
Flight info
| Callsign | ROA9557 |
|---|---|
| Flight time | N/A |
| Altitude | 40000 |
| Route | VADOR2 MIQ UL216 DAVEX UL793 LOGON/N0447F390 UL793 PUBIT/N0446F400 UL793 UDIDI/N0441F390 UL793 OROMU/N0439F400 UL793 GUA UZ129 PAGON PAGON9R |
| Aircraft | B737/M-SDE2E3FGHIRWXY/LB1 |
Departure
| Time | 2026-04-27 05:16 |
|---|---|
| Airport | Maiquetía Simón Bolívar International Airport (SVMI) |
Arrival
| Time | N/A |
|---|---|
| Airport | Aeroparque Jorge Newbery (SABE) |
| Time | Latitude | Longitude | Altitude | Speed | Heading |
|---|---|---|---|---|---|
| 2026-04-27 05:04 | 10.60129 | -67.00547 | 227 ft | 0 kts | 359° |
| 2026-04-27 05:08 | 10.60120 | -67.00547 | 227 ft | 4 kts | 359° |
| 2026-04-27 05:08 | 10.60096 | -67.00547 | 228 ft | 4 kts | 359° |
| 2026-04-27 05:09 | 10.60073 | -67.00546 | 231 ft | 4 kts | 358° |
| 2026-04-27 05:09 | 10.60049 | -67.00544 | 230 ft | 4 kts | 352° |
| 2026-04-27 05:09 | 10.60025 | -67.00540 | 229 ft | 4 kts | 342° |
| 2026-04-27 05:09 | 10.60005 | -67.00531 | 230 ft | 4 kts | 313° |
| 2026-04-27 05:10 | 10.59997 | -67.00517 | 228 ft | 0 kts | 270° |
| 2026-04-27 05:12 | 10.59997 | -67.00520 | 229 ft | 1 kts | 269° |
| 2026-04-27 05:12 | 10.59996 | -67.00549 | 229 ft | 7 kts | 268° |
| 2026-04-27 05:12 | 10.59994 | -67.00623 | 229 ft | 13 kts | 268° |
| 2026-04-27 05:12 | 10.59991 | -67.00735 | 231 ft | 18 kts | 268° |
| 2026-04-27 05:13 | 10.59987 | -67.00860 | 233 ft | 18 kts | 268° |
| 2026-04-27 05:13 | 10.59983 | -67.00978 | 235 ft | 16 kts | 268° |
| 2026-04-27 05:13 | 10.59980 | -67.01087 | 237 ft | 16 kts | 268° |
| 2026-04-27 05:13 | 10.59977 | -67.01192 | 239 ft | 9 kts | 268° |
| 2026-04-27 05:14 | 10.60016 | -67.01242 | 240 ft | 12 kts | 358° |
| 2026-04-27 05:14 | 10.60093 | -67.01244 | 240 ft | 8 kts | 358° |
| 2026-04-27 05:14 | 10.60160 | -67.01246 | 237 ft | 10 kts | 358° |
| 2026-04-27 05:14 | 10.60202 | -67.01243 | 237 ft | 7 kts | 30° |
| 2026-04-27 05:15 | 10.60215 | -67.01210 | 237 ft | 0 kts | 88° |
| 2026-04-27 05:15 | 10.60220 | -67.01058 | 232 ft | 57 kts | 88° |
| 2026-04-27 05:15 | 10.60240 | -67.00412 | 225 ft | 122 kts | 88° |
| 2026-04-27 05:15 | 10.60274 | -66.99395 | 358 ft | 155 kts | 89° |
| 2026-04-27 05:16 | 10.60323 | -66.98300 | 883 ft | 163 kts | 84° |
| 2026-04-27 05:16 | 10.60517 | -66.97204 | 1600 ft | 156 kts | 79° |
| 2026-04-27 05:16 | 10.60735 | -66.96113 | 2154 ft | 167 kts | 79° |
| 2026-04-27 05:16 | 10.60980 | -66.94840 | 2492 ft | 200 kts | 79° |
| 2026-04-27 05:17 | 10.61266 | -66.93350 | 2748 ft | 229 kts | 76° |
| 2026-04-27 05:17 | 10.61429 | -66.92820 | 2812 ft | 238 kts | 67° |
| 2026-04-27 05:17 | 10.62381 | -66.91403 | 3103 ft | 262 kts | 43° |
| 2026-04-27 05:17 | 10.63872 | -66.90284 | 3760 ft | 272 kts | 22° |
| 2026-04-27 05:18 | 10.65735 | -66.90058 | 4683 ft | 273 kts | 360° |
| 2026-04-27 05:18 | 10.67656 | -66.90124 | 5515 ft | 280 kts | 2° |
| 2026-04-27 05:18 | 10.69632 | -66.90125 | 6296 ft | 285 kts | 4° |
| 2026-04-27 05:18 | 10.71604 | -66.90083 | 6736 ft | 282 kts | 4° |
| 2026-04-27 05:19 | 10.73585 | -66.90021 | 7134 ft | 290 kts | 4° |
| 2026-04-27 05:19 | 10.75612 | -66.89948 | 8096 ft | 290 kts | 5° |
| 2026-04-27 05:19 | 10.77640 | -66.89870 | 9066 ft | 295 kts | 5° |
| 2026-04-27 05:19 | 10.79709 | -66.89790 | 10005 ft | 300 kts | 5° |
| 2026-04-27 05:20 | 10.81847 | -66.89705 | 10624 ft | 318 kts | 5° |
| 2026-04-27 05:20 | 10.84134 | -66.89612 | 10862 ft | 345 kts | 5° |
| 2026-04-27 05:20 | 10.86573 | -66.89468 | 11520 ft | 355 kts | 7° |
| 2026-04-27 05:20 | 10.89048 | -66.89264 | 12382 ft | 359 kts | 7° |
| 2026-04-27 05:21 | 10.91558 | -66.89044 | 13266 ft | 363 kts | 7° |
| 2026-04-27 05:21 | 10.94088 | -66.88825 | 14077 ft | 368 kts | 7° |
| 2026-04-27 05:21 | 10.96659 | -66.88607 | 14826 ft | 373 kts | 7° |
| 2026-04-27 05:21 | 10.99258 | -66.88392 | 15570 ft | 378 kts | 7° |
| 2026-04-27 05:22 | 11.01900 | -66.88176 | 16347 ft | 382 kts | 7° |
| 2026-04-27 05:22 | 11.04568 | -66.87960 | 17111 ft | 387 kts | 6° |
| 2026-04-27 05:22 | 11.07267 | -66.87740 | 17839 ft | 392 kts | 6° |
| 2026-04-27 05:22 | 11.10004 | -66.87540 | 18537 ft | 397 kts | 2° |
| 2026-04-27 05:23 | 11.12791 | -66.87721 | 19095 ft | 405 kts | 354° |
| 2026-04-27 05:23 | 11.15562 | -66.88121 | 19727 ft | 409 kts | 352° |
| 2026-04-27 05:23 | 11.18377 | -66.88575 | 20436 ft | 411 kts | 352° |
| 2026-04-27 05:23 | 11.21227 | -66.89028 | 20992 ft | 417 kts | 352° |
| 2026-04-27 05:24 | 11.24117 | -66.89464 | 21649 ft | 420 kts | 352° |
| 2026-04-27 05:24 | 11.27025 | -66.89882 | 22184 ft | 426 kts | 352° |
| 2026-04-27 05:24 | 11.29976 | -66.90294 | 22806 ft | 428 kts | 352° |
| 2026-04-27 05:24 | 11.32920 | -66.90699 | 23509 ft | 428 kts | 352° |
| 2026-04-27 05:25 | 11.35899 | -66.91107 | 23983 ft | 432 kts | 352° |
| 2026-04-27 05:25 | 11.38894 | -66.91518 | 24483 ft | 435 kts | 352° |
| 2026-04-27 05:25 | 11.41914 | -66.91933 | 24838 ft | 442 kts | 352° |
| 2026-04-27 05:25 | 11.44970 | -66.92390 | 25321 ft | 443 kts | 347° |
| 2026-04-27 05:26 | 11.47797 | -66.93530 | 25721 ft | 446 kts | 326° |
| 2026-04-27 05:26 | 11.50146 | -66.95578 | 26103 ft | 447 kts | 308° |
| 2026-04-27 05:26 | 11.51807 | -66.98254 | 26517 ft | 446 kts | 291° |
| 2026-04-27 05:26 | 11.52640 | -67.01286 | 26954 ft | 444 kts | 274° |
| 2026-04-27 05:27 | 11.52574 | -67.04417 | 27379 ft | 443 kts | 257° |
| 2026-04-27 05:27 | 11.51611 | -67.07378 | 27787 ft | 442 kts | 240° |
| 2026-04-27 05:27 | 11.49832 | -67.09918 | 28172 ft | 441 kts | 223° |
| 2026-04-27 05:27 | 11.47408 | -67.11808 | 28571 ft | 441 kts | 207° |
| 2026-04-27 05:28 | 11.44575 | -67.12889 | 28919 ft | 442 kts | 191° |
| 2026-04-27 05:28 | 11.41519 | -67.13078 | 29333 ft | 443 kts | 174° |
| 2026-04-27 05:28 | 11.38509 | -67.12388 | 29689 ft | 446 kts | 159° |
| 2026-04-27 05:28 | 11.35787 | -67.10850 | 29991 ft | 451 kts | 143° |
| 2026-04-27 05:29 | 11.33315 | -67.08868 | 30295 ft | 453 kts | 143° |
| 2026-04-27 05:29 | 11.30808 | -67.06903 | 30589 ft | 455 kts | 144° |
| 2026-04-27 05:29 | 11.28195 | -67.05069 | 30893 ft | 457 kts | 148° |
| 2026-04-27 05:29 | 11.25442 | -67.03424 | 31224 ft | 457 kts | 153° |
| 2026-04-27 05:30 | 11.22594 | -67.01978 | 31567 ft | 458 kts | 156° |
| 2026-04-27 05:30 | 11.19668 | -67.00698 | 31929 ft | 457 kts | 159° |
| 2026-04-27 05:30 | 11.16734 | -66.99587 | 32400 ft | 455 kts | 162° |
| 2026-04-27 05:30 | 11.13684 | -66.98603 | 32883 ft | 452 kts | 165° |
| 2026-04-27 05:31 | 11.10681 | -66.97801 | 33312 ft | 451 kts | 167° |
| 2026-04-27 05:31 | 11.07611 | -66.97152 | 33805 ft | 449 kts | 170° |
| 2026-04-27 05:31 | 11.04530 | -66.96669 | 34281 ft | 446 kts | 173° |
| 2026-04-27 05:31 | 11.01447 | -66.96351 | 34670 ft | 445 kts | 176° |
| 2026-04-27 05:32 | 10.98347 | -66.96196 | 34996 ft | 445 kts | 179° |
| 2026-04-27 05:32 | 10.95248 | -66.96187 | 35330 ft | 445 kts | 181° |
| 2026-04-27 05:32 | 10.92153 | -66.96321 | 35714 ft | 444 kts | 184° |
| 2026-04-27 05:32 | 10.89080 | -66.96575 | 36095 ft | 442 kts | 185° |
| 2026-04-27 05:33 | 10.86055 | -66.96840 | 36433 ft | 441 kts | 185° |
| 2026-04-27 05:33 | 10.83003 | -66.97110 | 36777 ft | 441 kts | 185° |
| 2026-04-27 05:33 | 10.79942 | -66.97377 | 37112 ft | 440 kts | 185° |
| 2026-04-27 05:33 | 10.76889 | -66.97641 | 37446 ft | 439 kts | 185° |
| 2026-04-27 05:34 | 10.73847 | -66.97900 | 37801 ft | 437 kts | 185° |
| 2026-04-27 05:34 | 10.70820 | -66.98157 | 38145 ft | 436 kts | 185° |
| 2026-04-27 05:34 | 10.67794 | -66.98414 | 38442 ft | 436 kts | 185° |
| 2026-04-27 05:34 | 10.64780 | -66.98670 | 38716 ft | 435 kts | 185° |
| 2026-04-27 05:35 | 10.61761 | -66.98926 | 38961 ft | 434 kts | 186° |
| 2026-04-27 05:35 | 10.58764 | -66.99339 | 39166 ft | 434 kts | 192° |
| 2026-04-27 05:35 | 10.55821 | -67.00026 | 39354 ft | 434 kts | 195° |
| 2026-04-27 05:35 | 10.52902 | -67.00804 | 39552 ft | 434 kts | 195° |
| 2026-04-27 05:36 | 10.49982 | -67.01581 | 39787 ft | 433 kts | 195° |
| 2026-04-27 05:36 | 10.47101 | -67.02317 | 39988 ft | 433 kts | 194° |
| 2026-04-27 05:36 | 10.44156 | -67.03039 | 39967 ft | 436 kts | 194° |
| 2026-04-27 05:37 | 10.38265 | -67.04453 | 40001 ft | 433 kts | 194° |
| 2026-04-27 05:37 | 10.32436 | -67.05907 | 39997 ft | 429 kts | 194° |
| 2026-04-27 05:38 | 10.26652 | -67.07372 | 39996 ft | 427 kts | 194° |
| 2026-04-27 05:38 | 10.20895 | -67.08824 | 39992 ft | 425 kts | 194° |
| 2026-04-27 05:39 | 10.15205 | -67.10254 | 40004 ft | 424 kts | 194° |
| 2026-04-27 05:39 | 10.09471 | -67.11693 | 40002 ft | 424 kts | 194° |
| 2026-04-27 05:40 | 10.03721 | -67.13137 | 39998 ft | 427 kts | 194° |
| 2026-04-27 05:40 | 9.97942 | -67.14587 | 39990 ft | 429 kts | 194° |
| 2026-04-27 05:41 | 9.92054 | -67.15760 | 39995 ft | 432 kts | 189° |
| 2026-04-27 05:41 | 9.86105 | -67.16540 | 39981 ft | 435 kts | 188° |
| 2026-04-27 05:42 | 9.80086 | -67.17307 | 39979 ft | 436 kts | 188° |
| 2026-04-27 05:42 | 9.74053 | -67.18113 | 39962 ft | 437 kts | 188° |
| 2026-04-27 05:43 | 9.68031 | -67.18938 | 39965 ft | 437 kts | 188° |
| 2026-04-27 05:43 | 9.62007 | -67.19769 | 39953 ft | 436 kts | 188° |
| 2026-04-27 05:44 | 9.56030 | -67.20592 | 39954 ft | 435 kts | 188° |
| 2026-04-27 05:44 | 9.50036 | -67.21418 | 39948 ft | 434 kts | 188° |
| 2026-04-27 05:45 | 9.44053 | -67.22241 | 39944 ft | 433 kts | 188° |
| 2026-04-27 05:45 | 9.38085 | -67.23062 | 39948 ft | 432 kts | 188° |
| 2026-04-27 05:46 | 9.32128 | -67.23881 | 39941 ft | 432 kts | 188° |
| 2026-04-27 05:46 | 9.26205 | -67.24694 | 39943 ft | 431 kts | 188° |
| 2026-04-27 05:47 | 9.20254 | -67.25512 | 39943 ft | 431 kts | 188° |
| 2026-04-27 05:47 | 9.14308 | -67.26329 | 39943 ft | 432 kts | 188° |
| 2026-04-27 05:48 | 9.08352 | -67.27146 | 39943 ft | 432 kts | 188° |
| 2026-04-27 05:48 | 9.02384 | -67.27965 | 39940 ft | 433 kts | 189° |
| 2026-04-27 05:49 | 8.96407 | -67.28785 | 39941 ft | 433 kts | 189° |
| 2026-04-27 05:49 | 8.90456 | -67.29602 | 39940 ft | 434 kts | 189° |
| 2026-04-27 05:50 | 8.84458 | -67.30424 | 39941 ft | 435 kts | 189° |
| 2026-04-27 05:50 | 8.78448 | -67.31248 | 39938 ft | 435 kts | 189° |
| 2026-04-27 05:51 | 8.72468 | -67.32067 | 39935 ft | 435 kts | 189° |
| 2026-04-27 05:51 | 8.66456 | -67.32891 | 39937 ft | 436 kts | 189° |
| 2026-04-27 05:52 | 8.60441 | -67.33714 | 39938 ft | 436 kts | 189° |
| 2026-04-27 05:52 | 8.54429 | -67.34537 | 39936 ft | 436 kts | 189° |
| 2026-04-27 05:53 | 8.49432 | -67.35221 | 39931 ft | 436 kts | 189° |
| 2026-04-27 05:53 | 8.43414 | -67.36045 | 39934 ft | 436 kts | 189° |
| 2026-04-27 05:54 | 8.37399 | -67.36810 | 39924 ft | 436 kts | 184° |
| 2026-04-27 05:54 | 8.31354 | -67.36262 | 39939 ft | 438 kts | 169° |
| 2026-04-27 05:55 | 8.25437 | -67.34917 | 39934 ft | 439 kts | 169° |
| 2026-04-27 05:55 | 8.19467 | -67.33551 | 39931 ft | 439 kts | 169° |
| 2026-04-27 05:56 | 8.13489 | -67.32224 | 39937 ft | 440 kts | 169° |
| 2026-04-27 05:56 | 8.07508 | -67.30912 | 39928 ft | 440 kts | 169° |
| 2026-04-27 05:57 | 8.01521 | -67.29601 | 39919 ft | 440 kts | 169° |
| 2026-04-27 05:57 | 7.95533 | -67.28288 | 39929 ft | 441 kts | 169° |
| 2026-04-27 05:58 | 7.89537 | -67.26973 | 39933 ft | 441 kts | 169° |
| 2026-04-27 05:58 | 7.83531 | -67.25656 | 39928 ft | 441 kts | 169° |
| 2026-04-27 05:59 | 7.77567 | -67.24338 | 39926 ft | 442 kts | 169° |
| 2026-04-27 05:59 | 7.71558 | -67.23006 | 39926 ft | 442 kts | 169° |
| 2026-04-27 06:00 | 7.62541 | -67.21010 | 39926 ft | 442 kts | 169° |
| 2026-04-27 06:00 | 7.56535 | -67.19682 | 39929 ft | 442 kts | 169° |
| 2026-04-27 06:01 | 7.50531 | -67.18355 | 39926 ft | 442 kts | 169° |
| 2026-04-27 06:01 | 7.44525 | -67.17028 | 39927 ft | 442 kts | 169° |
| 2026-04-27 06:02 | 7.38517 | -67.15700 | 39925 ft | 442 kts | 169° |
| 2026-04-27 06:02 | 7.32511 | -67.14374 | 39921 ft | 442 kts | 169° |
| 2026-04-27 06:03 | 7.26544 | -67.13056 | 39927 ft | 442 kts | 169° |
| 2026-04-27 06:03 | 7.20528 | -67.11727 | 39923 ft | 442 kts | 169° |
| 2026-04-27 06:04 | 7.14510 | -67.10399 | 39924 ft | 443 kts | 169° |
| 2026-04-27 06:04 | 7.08488 | -67.09064 | 39922 ft | 443 kts | 168° |
| 2026-04-27 06:05 | 7.02470 | -67.07712 | 39920 ft | 443 kts | 168° |
| 2026-04-27 06:05 | 6.96449 | -67.06359 | 39918 ft | 443 kts | 168° |
| 2026-04-27 06:06 | 6.90418 | -67.05005 | 39925 ft | 444 kts | 168° |
| 2026-04-27 06:06 | 6.84390 | -67.03653 | 39922 ft | 444 kts | 168° |
| 2026-04-27 06:07 | 6.78395 | -67.02309 | 39924 ft | 444 kts | 169° |
| 2026-04-27 06:07 | 6.72358 | -67.00956 | 39923 ft | 444 kts | 169° |
| 2026-04-27 06:08 | 6.66313 | -66.99601 | 39922 ft | 444 kts | 169° |
| 2026-04-27 06:08 | 6.60274 | -66.98248 | 39926 ft | 444 kts | 169° |
| 2026-04-27 06:09 | 6.54237 | -66.96885 | 39927 ft | 444 kts | 168° |
| 2026-04-27 06:09 | 6.48246 | -66.95335 | 39928 ft | 445 kts | 166° |
| 2026-04-27 06:10 | 6.42271 | -66.93718 | 39934 ft | 445 kts | 166° |
| 2026-04-27 06:10 | 6.36287 | -66.92114 | 39934 ft | 445 kts | 166° |
| 2026-04-27 06:11 | 6.30303 | -66.90529 | 39931 ft | 445 kts | 167° |
| 2026-04-27 06:11 | 6.24316 | -66.88951 | 39944 ft | 445 kts | 167° |
| 2026-04-27 06:12 | 6.18361 | -66.87382 | 39945 ft | 444 kts | 167° |
| 2026-04-27 06:12 | 6.12382 | -66.85807 | 39954 ft | 444 kts | 167° |
| 2026-04-27 06:13 | 6.06396 | -66.84230 | 39949 ft | 445 kts | 167° |
| 2026-04-27 06:13 | 6.00409 | -66.82654 | 39960 ft | 445 kts | 167° |
| 2026-04-27 06:14 | 5.94423 | -66.81078 | 39961 ft | 445 kts | 167° |
| 2026-04-27 06:14 | 5.88463 | -66.79509 | 39961 ft | 445 kts | 167° |
| 2026-04-27 06:15 | 5.82468 | -66.77931 | 39969 ft | 445 kts | 167° |
| 2026-04-27 06:15 | 5.76475 | -66.76354 | 39973 ft | 445 kts | 167° |
| 2026-04-27 06:16 | 5.70476 | -66.74775 | 39973 ft | 446 kts | 167° |
| 2026-04-27 06:16 | 5.64474 | -66.73197 | 39977 ft | 446 kts | 167° |
| 2026-04-27 06:17 | 5.58501 | -66.71626 | 39978 ft | 446 kts | 167° |
| 2026-04-27 06:17 | 5.52489 | -66.70046 | 39974 ft | 446 kts | 167° |
| 2026-04-27 06:18 | 5.46480 | -66.68466 | 39968 ft | 446 kts | 167° |
| 2026-04-27 06:18 | 5.40474 | -66.66888 | 39968 ft | 446 kts | 167° |
| 2026-04-27 06:19 | 5.34475 | -66.65311 | 39968 ft | 445 kts | 167° |
| 2026-04-27 06:19 | 5.28483 | -66.63738 | 39964 ft | 445 kts | 167° |
| 2026-04-27 06:20 | 5.22495 | -66.62165 | 39960 ft | 444 kts | 166° |
| 2026-04-27 06:20 | 5.16516 | -66.60595 | 39954 ft | 444 kts | 166° |
| 2026-04-27 06:21 | 5.10544 | -66.59027 | 39958 ft | 443 kts | 166° |
| 2026-04-27 06:21 | 5.04607 | -66.57469 | 39954 ft | 443 kts | 166° |
| 2026-04-27 06:22 | 4.98645 | -66.55904 | 39954 ft | 443 kts | 166° |
| 2026-04-27 06:22 | 4.92679 | -66.54338 | 39961 ft | 442 kts | 166° |
| 2026-04-27 06:23 | 4.86721 | -66.52775 | 39955 ft | 443 kts | 166° |
| 2026-04-27 06:23 | 4.80763 | -66.51213 | 39961 ft | 443 kts | 166° |
| 2026-04-27 06:24 | 4.74799 | -66.49649 | 39942 ft | 443 kts | 166° |
| 2026-04-27 06:24 | 4.68861 | -66.48092 | 39938 ft | 444 kts | 166° |
| 2026-04-27 06:25 | 4.62880 | -66.46523 | 39937 ft | 444 kts | 166° |
| 2026-04-27 06:25 | 4.56892 | -66.44954 | 39927 ft | 445 kts | 166° |
| 2026-04-27 06:26 | 4.50908 | -66.43385 | 39925 ft | 445 kts | 166° |
| 2026-04-27 06:26 | 4.44917 | -66.41815 | 39920 ft | 445 kts | 166° |
| 2026-04-27 06:27 | 4.38878 | -66.40473 | 39923 ft | 445 kts | 170° |
| 2026-04-27 06:27 | 4.32797 | -66.39325 | 39923 ft | 445 kts | 170° |
| 2026-04-27 06:28 | 4.26714 | -66.38177 | 39920 ft | 445 kts | 170° |
| 2026-04-27 06:28 | 4.20669 | -66.37007 | 39920 ft | 445 kts | 170° |
| 2026-04-27 06:29 | 4.14596 | -66.35819 | 39926 ft | 444 kts | 170° |
| 2026-04-27 06:29 | 4.08524 | -66.34628 | 39922 ft | 444 kts | 170° |
| 2026-04-27 06:30 | 4.02465 | -66.33439 | 39924 ft | 443 kts | 170° |
| 2026-04-27 06:30 | 3.96421 | -66.32254 | 39926 ft | 442 kts | 170° |
| 2026-04-27 06:31 | 3.90415 | -66.31078 | 39925 ft | 442 kts | 170° |
| 2026-04-27 06:31 | 3.84383 | -66.29896 | 39925 ft | 442 kts | 170° |
| 2026-04-27 06:32 | 3.78356 | -66.28716 | 39928 ft | 441 kts | 170° |
| 2026-04-27 06:32 | 3.72334 | -66.27536 | 39929 ft | 441 kts | 170° |
| 2026-04-27 06:33 | 3.66314 | -66.26357 | 39928 ft | 441 kts | 170° |
| 2026-04-27 06:33 | 3.60292 | -66.25178 | 39924 ft | 441 kts | 170° |
| 2026-04-27 06:34 | 3.54264 | -66.23998 | 39928 ft | 441 kts | 170° |
| 2026-04-27 06:34 | 3.48288 | -66.22828 | 39925 ft | 441 kts | 170° |
| 2026-04-27 06:35 | 3.42259 | -66.21649 | 39924 ft | 441 kts | 171° |
| 2026-04-27 06:35 | 3.36223 | -66.20467 | 39928 ft | 442 kts | 170° |
| 2026-04-27 06:36 | 3.30182 | -66.19286 | 39925 ft | 443 kts | 171° |
| 2026-04-27 06:36 | 3.24126 | -66.18101 | 39923 ft | 443 kts | 171° |
| 2026-04-27 06:37 | 3.18062 | -66.16915 | 39923 ft | 444 kts | 171° |
| 2026-04-27 06:37 | 3.12031 | -66.15735 | 39924 ft | 444 kts | 171° |
| 2026-04-27 06:38 | 3.05955 | -66.14546 | 39916 ft | 445 kts | 171° |
| 2026-04-27 06:38 | 2.99879 | -66.13358 | 39921 ft | 444 kts | 171° |
| 2026-04-27 06:39 | 2.93809 | -66.12171 | 39919 ft | 444 kts | 171° |
| 2026-04-27 06:39 | 2.87741 | -66.10985 | 39917 ft | 444 kts | 171° |
| 2026-04-27 06:40 | 2.81679 | -66.09800 | 39917 ft | 444 kts | 171° |
| 2026-04-27 06:40 | 2.75617 | -66.08615 | 39916 ft | 443 kts | 170° |
| 2026-04-27 06:41 | 2.69564 | -66.07432 | 39919 ft | 443 kts | 170° |
| 2026-04-27 06:41 | 2.63510 | -66.06249 | 39918 ft | 443 kts | 170° |
| 2026-04-27 06:42 | 2.58479 | -66.05266 | 39918 ft | 443 kts | 170° |
| 2026-04-27 06:42 | 2.51438 | -66.03890 | 39923 ft | 443 kts | 170° |
| 2026-04-27 06:43 | 2.46363 | -66.02898 | 39920 ft | 443 kts | 170° |
| 2026-04-27 06:43 | 2.40336 | -66.01720 | 39918 ft | 443 kts | 171° |
| 2026-04-27 06:44 | 2.34272 | -66.00531 | 39922 ft | 444 kts | 171° |
| 2026-04-27 06:44 | 2.28209 | -65.99333 | 39919 ft | 444 kts | 171° |
| 2026-04-27 06:45 | 2.22137 | -65.98133 | 39921 ft | 444 kts | 171° |
| 2026-04-27 06:45 | 2.16073 | -65.96936 | 39919 ft | 445 kts | 171° |
| 2026-04-27 06:46 | 2.10032 | -65.95744 | 39918 ft | 445 kts | 171° |
| 2026-04-27 06:46 | 2.03955 | -65.94544 | 39920 ft | 445 kts | 171° |
| 2026-04-27 06:47 | 1.97890 | -65.93347 | 39921 ft | 444 kts | 171° |
| 2026-04-27 06:47 | 1.91824 | -65.92151 | 39919 ft | 444 kts | 170° |
| 2026-04-27 06:48 | 1.85767 | -65.90956 | 39919 ft | 444 kts | 170° |
| 2026-04-27 06:48 | 1.79713 | -65.89761 | 39925 ft | 443 kts | 170° |
| 2026-04-27 06:49 | 1.73665 | -65.88568 | 39927 ft | 443 kts | 170° |
| 2026-04-27 06:49 | 1.67618 | -65.87375 | 39929 ft | 443 kts | 170° |
| 2026-04-27 06:50 | 1.61566 | -65.86181 | 39939 ft | 443 kts | 170° |
| 2026-04-27 06:50 | 1.55559 | -65.84997 | 39940 ft | 443 kts | 170° |
| 2026-04-27 06:51 | 1.49509 | -65.83803 | 39947 ft | 443 kts | 170° |
| 2026-04-27 06:51 | 1.43451 | -65.82609 | 39950 ft | 443 kts | 170° |
| 2026-04-27 06:52 | 1.37391 | -65.81414 | 39945 ft | 444 kts | 170° |
| 2026-04-27 06:52 | 1.31329 | -65.80218 | 39948 ft | 444 kts | 170° |
| 2026-04-27 06:53 | 1.25292 | -65.79028 | 39952 ft | 445 kts | 170° |
| 2026-04-27 06:53 | 1.19173 | -65.77821 | 39951 ft | 445 kts | 170° |
| 2026-04-27 06:54 | 1.13132 | -65.76630 | 39950 ft | 446 kts | 170° |
| 2026-04-27 06:54 | 1.07035 | -65.75427 | 39958 ft | 446 kts | 170° |
| 2026-04-27 06:55 | 1.00931 | -65.74224 | 39956 ft | 446 kts | 169° |
| 2026-04-27 06:55 | 0.94843 | -65.72961 | 39957 ft | 447 kts | 168° |
| 2026-04-27 06:56 | 0.88768 | -65.71633 | 39954 ft | 447 kts | 168° |
| 2026-04-27 06:56 | 0.82677 | -65.70317 | 39951 ft | 447 kts | 169° |
| 2026-04-27 06:57 | 0.76633 | -65.69022 | 39948 ft | 447 kts | 169° |
| 2026-04-27 06:57 | 0.70545 | -65.67723 | 39950 ft | 447 kts | 169° |
| 2026-04-27 06:58 | 0.61421 | -65.65774 | 39954 ft | 447 kts | 169° |
| 2026-04-27 06:59 | 0.55335 | -65.64473 | 39940 ft | 447 kts | 169° |
| 2026-04-27 06:59 | 0.49249 | -65.63172 | 39941 ft | 447 kts | 169° |
| 2026-04-27 07:00 | 0.43149 | -65.61868 | 39932 ft | 447 kts | 169° |
| 2026-04-27 07:00 | 0.37067 | -65.60568 | 39940 ft | 447 kts | 168° |
| 2026-04-27 07:01 | 0.30977 | -65.59266 | 39929 ft | 447 kts | 168° |
| 2026-04-27 07:01 | 0.24922 | -65.57972 | 39922 ft | 448 kts | 168° |
| 2026-04-27 07:02 | 0.18829 | -65.56669 | 39924 ft | 448 kts | 168° |
| 2026-04-27 07:02 | 0.12736 | -65.55367 | 39917 ft | 448 kts | 168° |
| 2026-04-27 07:03 | 0.06626 | -65.54061 | 39918 ft | 448 kts | 168° |
| 2026-04-27 07:03 | 0.00523 | -65.52756 | 39919 ft | 448 kts | 168° |
| 2026-04-27 07:04 | -0.05577 | -65.51452 | 39912 ft | 449 kts | 168° |
| 2026-04-27 07:04 | -0.11683 | -65.50147 | 39915 ft | 449 kts | 168° |
| 2026-04-27 07:05 | -0.17786 | -65.48843 | 39917 ft | 449 kts | 168° |
| 2026-04-27 07:05 | -0.23901 | -65.47535 | 39912 ft | 449 kts | 168° |
| 2026-04-27 07:06 | -0.29974 | -65.46237 | 39915 ft | 449 kts | 168° |
| 2026-04-27 07:06 | -0.36090 | -65.44929 | 39912 ft | 449 kts | 168° |
| 2026-04-27 07:07 | -0.42202 | -65.43623 | 39912 ft | 449 kts | 168° |
| 2026-04-27 07:07 | -0.48316 | -65.42315 | 39914 ft | 449 kts | 168° |
| 2026-04-27 07:08 | -0.54429 | -65.41008 | 39912 ft | 449 kts | 168° |
| 2026-04-27 07:08 | -0.60539 | -65.39700 | 39912 ft | 449 kts | 168° |
| 2026-04-27 07:09 | -0.66658 | -65.38387 | 39912 ft | 449 kts | 168° |
| 2026-04-27 07:09 | -0.72728 | -65.37084 | 39910 ft | 449 kts | 168° |
| 2026-04-27 07:10 | -0.78837 | -65.35773 | 39912 ft | 449 kts | 168° |
| 2026-04-27 07:10 | -0.84948 | -65.34459 | 39912 ft | 449 kts | 168° |
| 2026-04-27 07:11 | -0.91030 | -65.33022 | 39912 ft | 449 kts | 166° |
| 2026-04-27 07:11 | -0.97097 | -65.31524 | 39912 ft | 449 kts | 166° |
| 2026-04-27 07:12 | -1.03173 | -65.30031 | 39915 ft | 449 kts | 166° |
| 2026-04-27 07:12 | -1.09248 | -65.28552 | 39912 ft | 449 kts | 167° |
| 2026-04-27 07:13 | -1.15326 | -65.27077 | 39914 ft | 449 kts | 167° |
| 2026-04-27 07:13 | -1.21363 | -65.25614 | 39912 ft | 449 kts | 167° |
| 2026-04-27 07:14 | -1.27434 | -65.24141 | 39914 ft | 449 kts | 167° |
| 2026-04-27 07:14 | -1.33506 | -65.22668 | 39915 ft | 449 kts | 167° |
| 2026-04-27 07:15 | -1.39574 | -65.21197 | 39916 ft | 449 kts | 167° |
| 2026-04-27 07:15 | -1.45644 | -65.19724 | 39918 ft | 448 kts | 167° |
| 2026-04-27 07:16 | -1.51705 | -65.18253 | 39912 ft | 448 kts | 167° |
| 2026-04-27 07:16 | -1.57767 | -65.16783 | 39916 ft | 448 kts | 167° |
| 2026-04-27 07:17 | -1.63829 | -65.15312 | 39917 ft | 448 kts | 167° |
| 2026-04-27 07:17 | -1.69886 | -65.13842 | 39917 ft | 448 kts | 167° |
| 2026-04-27 07:18 | -1.75950 | -65.12370 | 39917 ft | 447 kts | 167° |
| 2026-04-27 07:18 | -1.81966 | -65.10910 | 39918 ft | 447 kts | 167° |
| 2026-04-27 07:19 | -1.88024 | -65.09440 | 39916 ft | 447 kts | 167° |
| 2026-04-27 07:19 | -1.94068 | -65.07973 | 39915 ft | 447 kts | 167° |
| 2026-04-27 07:20 | -2.00113 | -65.06505 | 39920 ft | 447 kts | 167° |
| 2026-04-27 07:20 | -2.06154 | -65.05039 | 39917 ft | 447 kts | 167° |
| 2026-04-27 07:21 | -2.12198 | -65.03572 | 39913 ft | 447 kts | 167° |
| 2026-04-27 07:21 | -2.18242 | -65.02104 | 39916 ft | 447 kts | 167° |
| 2026-04-27 07:22 | -2.24292 | -65.00635 | 39916 ft | 447 kts | 167° |
| 2026-04-27 07:22 | -2.30336 | -64.99167 | 39916 ft | 447 kts | 167° |
| 2026-04-27 07:23 | -2.36390 | -64.97697 | 39918 ft | 448 kts | 167° |
| 2026-04-27 07:23 | -2.42408 | -64.96235 | 39913 ft | 448 kts | 166° |
| 2026-04-27 07:24 | -2.48508 | -64.94754 | 39916 ft | 448 kts | 166° |
| 2026-04-27 07:24 | -2.54523 | -64.93293 | 39913 ft | 448 kts | 166° |
| 2026-04-27 07:25 | -2.60595 | -64.91817 | 39913 ft | 448 kts | 166° |
| 2026-04-27 07:25 | -2.66669 | -64.90341 | 39913 ft | 449 kts | 166° |
| 2026-04-27 07:26 | -2.72739 | -64.88866 | 39912 ft | 449 kts | 166° |
| 2026-04-27 07:26 | -2.78810 | -64.87391 | 39912 ft | 449 kts | 166° |
| 2026-04-27 07:27 | -2.84879 | -64.85916 | 39912 ft | 449 kts | 166° |
| 2026-04-27 07:27 | -2.90950 | -64.84440 | 39913 ft | 449 kts | 166° |
| 2026-04-27 07:28 | -2.96984 | -64.82973 | 39916 ft | 449 kts | 166° |
| 2026-04-27 07:28 | -3.03058 | -64.81496 | 39915 ft | 449 kts | 166° |
| 2026-04-27 07:29 | -3.09131 | -64.80019 | 39918 ft | 449 kts | 166° |
| 2026-04-27 07:29 | -3.14183 | -64.78791 | 39911 ft | 449 kts | 166° |
| 2026-04-27 07:30 | -3.20252 | -64.77314 | 39918 ft | 449 kts | 166° |
| 2026-04-27 07:30 | -3.26327 | -64.75836 | 39918 ft | 449 kts | 166° |
| 2026-04-27 07:31 | -3.32397 | -64.74359 | 39916 ft | 449 kts | 166° |
| 2026-04-27 07:31 | -3.38479 | -64.72879 | 39915 ft | 449 kts | 166° |
| 2026-04-27 07:32 | -3.44545 | -64.71393 | 39912 ft | 449 kts | 166° |
| 2026-04-27 07:32 | -3.50619 | -64.69896 | 39916 ft | 449 kts | 166° |
| 2026-04-27 07:33 | -3.56686 | -64.68401 | 39915 ft | 449 kts | 166° |
| 2026-04-27 07:33 | -3.62763 | -64.66904 | 39915 ft | 449 kts | 166° |
| 2026-04-27 07:34 | -3.68834 | -64.65409 | 39921 ft | 449 kts | 166° |
| 2026-04-27 07:34 | -3.74875 | -64.63921 | 39914 ft | 449 kts | 166° |
| 2026-04-27 07:35 | -3.80950 | -64.62424 | 39913 ft | 449 kts | 166° |
| 2026-04-27 07:35 | -3.87026 | -64.60927 | 39919 ft | 449 kts | 166° |
| 2026-04-27 07:36 | -3.93104 | -64.59430 | 39917 ft | 449 kts | 166° |
| 2026-04-27 07:36 | -3.99173 | -64.57934 | 39918 ft | 449 kts | 166° |
| 2026-04-27 07:37 | -4.05247 | -64.56437 | 39921 ft | 449 kts | 166° |
| 2026-04-27 07:37 | -4.11320 | -64.54939 | 39917 ft | 449 kts | 166° |
| 2026-04-27 07:38 | -4.17397 | -64.53441 | 39914 ft | 449 kts | 165° |
| 2026-04-27 07:38 | -4.23472 | -64.51943 | 39919 ft | 449 kts | 165° |
| 2026-04-27 07:39 | -4.29509 | -64.50453 | 39917 ft | 450 kts | 165° |
| 2026-04-27 07:39 | -4.35588 | -64.48953 | 39918 ft | 450 kts | 165° |
| 2026-04-27 07:40 | -4.41668 | -64.47454 | 39918 ft | 450 kts | 165° |
| 2026-04-27 07:40 | -4.47756 | -64.45952 | 39918 ft | 450 kts | 165° |
| 2026-04-27 07:41 | -4.53847 | -64.44449 | 39919 ft | 450 kts | 165° |
| 2026-04-27 07:41 | -4.59939 | -64.42944 | 39917 ft | 451 kts | 165° |
| 2026-04-27 07:42 | -4.66031 | -64.41440 | 39920 ft | 451 kts | 165° |
| 2026-04-27 07:42 | -4.72128 | -64.39934 | 39919 ft | 451 kts | 165° |
| 2026-04-27 07:43 | -4.78180 | -64.38439 | 39915 ft | 451 kts | 165° |
| 2026-04-27 07:43 | -4.84278 | -64.36932 | 39911 ft | 451 kts | 165° |
| 2026-04-27 07:44 | -4.90375 | -64.35426 | 39917 ft | 451 kts | 165° |
| 2026-04-27 07:44 | -4.96484 | -64.33915 | 39916 ft | 452 kts | 165° |
| 2026-04-27 07:45 | -5.02601 | -64.32403 | 39921 ft | 452 kts | 165° |
| 2026-04-27 07:45 | -5.08692 | -64.30897 | 39918 ft | 453 kts | 165° |
| 2026-04-27 07:46 | -5.14813 | -64.29383 | 39916 ft | 453 kts | 165° |
| 2026-04-27 07:46 | -5.20934 | -64.27868 | 39915 ft | 453 kts | 165° |
| 2026-04-27 07:47 | -5.27057 | -64.26353 | 39919 ft | 453 kts | 165° |
| 2026-04-27 07:47 | -5.33175 | -64.24840 | 39917 ft | 452 kts | 165° |
| 2026-04-27 07:48 | -5.39287 | -64.23332 | 39915 ft | 452 kts | 165° |
| 2026-04-27 07:48 | -5.45399 | -64.21823 | 39915 ft | 452 kts | 165° |
| 2026-04-27 07:49 | -5.51500 | -64.20316 | 39917 ft | 451 kts | 165° |
| 2026-04-27 07:49 | -5.57594 | -64.18811 | 39913 ft | 450 kts | 165° |
| 2026-04-27 07:50 | -5.63633 | -64.17318 | 39911 ft | 450 kts | 165° |
| 2026-04-27 07:50 | -5.69711 | -64.15816 | 39912 ft | 449 kts | 165° |
| 2026-04-27 07:51 | -5.75774 | -64.14317 | 39912 ft | 448 kts | 165° |
| 2026-04-27 07:51 | -5.81843 | -64.12816 | 39913 ft | 448 kts | 165° |
| 2026-04-27 07:52 | -5.87894 | -64.11319 | 39913 ft | 448 kts | 165° |
| 2026-04-27 07:52 | -5.93945 | -64.09822 | 39912 ft | 447 kts | 165° |
| 2026-04-27 07:53 | -5.99985 | -64.08327 | 39914 ft | 447 kts | 165° |
| 2026-04-27 07:53 | -6.05975 | -64.06844 | 39911 ft | 446 kts | 165° |
| 2026-04-27 07:54 | -6.12006 | -64.05351 | 39913 ft | 446 kts | 165° |
| 2026-04-27 07:54 | -6.18046 | -64.03855 | 39908 ft | 446 kts | 165° |
| 2026-04-27 07:55 | -6.24085 | -64.02359 | 39915 ft | 447 kts | 165° |
| 2026-04-27 07:55 | -6.30125 | -64.00862 | 39913 ft | 447 kts | 165° |
| 2026-04-27 07:56 | -6.36129 | -63.99374 | 39913 ft | 447 kts | 165° |
| 2026-04-27 07:56 | -6.42181 | -63.97874 | 39913 ft | 448 kts | 165° |
| 2026-04-27 07:57 | -6.48245 | -63.96406 | 39911 ft | 448 kts | 166° |
| 2026-04-27 07:57 | -6.54356 | -63.95146 | 39913 ft | 449 kts | 167° |
| 2026-04-27 07:58 | -6.60492 | -63.93921 | 39915 ft | 449 kts | 167° |
| 2026-04-27 07:58 | -6.66620 | -63.92672 | 39915 ft | 449 kts | 167° |
| 2026-04-27 07:59 | -6.72757 | -63.91403 | 39917 ft | 449 kts | 166° |
| 2026-04-27 07:59 | -6.81945 | -63.89498 | 39918 ft | 449 kts | 166° |
| 2026-04-27 08:00 | -6.88035 | -63.88235 | 39922 ft | 449 kts | 167° |
| 2026-04-27 08:00 | -6.94160 | -63.86965 | 39919 ft | 449 kts | 167° |
| 2026-04-27 08:01 | -7.00272 | -63.85698 | 39918 ft | 448 kts | 167° |
| 2026-04-27 08:01 | -7.06380 | -63.84431 | 39917 ft | 448 kts | 167° |
| 2026-04-27 08:02 | -7.12476 | -63.83166 | 39917 ft | 447 kts | 167° |
| 2026-04-27 08:02 | -7.18565 | -63.81902 | 39917 ft | 447 kts | 167° |
| 2026-04-27 08:03 | -7.24652 | -63.80638 | 39916 ft | 446 kts | 167° |
| 2026-04-27 08:03 | -7.30696 | -63.79383 | 39915 ft | 446 kts | 167° |
| 2026-04-27 08:04 | -7.36773 | -63.78124 | 39918 ft | 446 kts | 167° |
| 2026-04-27 08:04 | -7.42858 | -63.76863 | 39917 ft | 446 kts | 167° |
| 2026-04-27 08:05 | -7.48949 | -63.75599 | 39921 ft | 446 kts | 167° |
| 2026-04-27 08:05 | -7.55035 | -63.74336 | 39923 ft | 447 kts | 167° |
| 2026-04-27 08:06 | -7.61127 | -63.73072 | 39920 ft | 447 kts | 167° |
| 2026-04-27 08:06 | -7.67222 | -63.71806 | 39921 ft | 447 kts | 167° |
| 2026-04-27 08:07 | -7.73324 | -63.70539 | 39924 ft | 447 kts | 167° |
| 2026-04-27 08:07 | -7.79388 | -63.69279 | 39924 ft | 448 kts | 167° |
| 2026-04-27 08:08 | -7.85494 | -63.68009 | 39909 ft | 448 kts | 167° |
| 2026-04-27 08:08 | -7.91612 | -63.66737 | 39924 ft | 449 kts | 167° |
| 2026-04-27 08:09 | -7.97737 | -63.65463 | 39924 ft | 450 kts | 167° |
| 2026-04-27 08:09 | -8.03877 | -63.64186 | 39924 ft | 451 kts | 167° |
| 2026-04-27 08:10 | -8.10030 | -63.62906 | 39925 ft | 452 kts | 167° |
| 2026-04-27 08:10 | -8.16200 | -63.61621 | 39920 ft | 452 kts | 167° |
| 2026-04-27 08:11 | -8.22317 | -63.60347 | 39923 ft | 452 kts | 167° |
| 2026-04-27 08:11 | -8.28472 | -63.59066 | 39922 ft | 451 kts | 167° |
| 2026-04-27 08:12 | -8.34620 | -63.57790 | 39922 ft | 451 kts | 167° |
| 2026-04-27 08:12 | -8.40772 | -63.56514 | 39923 ft | 450 kts | 167° |
| 2026-04-27 08:13 | -8.46914 | -63.55238 | 39926 ft | 449 kts | 167° |
| 2026-04-27 08:13 | -8.52999 | -63.53973 | 39924 ft | 449 kts | 167° |
| 2026-04-27 08:14 | -8.59119 | -63.52700 | 39927 ft | 449 kts | 167° |
| 2026-04-27 08:14 | -8.65239 | -63.51427 | 39926 ft | 449 kts | 167° |
| 2026-04-27 08:15 | -8.71357 | -63.50154 | 39929 ft | 449 kts | 167° |
| 2026-04-27 08:15 | -8.77479 | -63.48880 | 39930 ft | 449 kts | 167° |
| 2026-04-27 08:16 | -8.83602 | -63.47604 | 39928 ft | 450 kts | 168° |
| 2026-04-27 08:16 | -8.89734 | -63.46327 | 39930 ft | 450 kts | 167° |
| 2026-04-27 08:17 | -8.94838 | -63.45260 | 39930 ft | 451 kts | 167° |
| 2026-04-27 08:17 | -9.00991 | -63.43970 | 39929 ft | 451 kts | 167° |
| 2026-04-27 08:18 | -9.07143 | -63.42680 | 39931 ft | 452 kts | 168° |
| 2026-04-27 08:18 | -9.13310 | -63.41387 | 39931 ft | 452 kts | 168° |
| 2026-04-27 08:19 | -9.19474 | -63.40094 | 39931 ft | 452 kts | 168° |
| 2026-04-27 08:19 | -9.25644 | -63.38799 | 39928 ft | 453 kts | 168° |
| 2026-04-27 08:20 | -9.31770 | -63.37513 | 39931 ft | 452 kts | 168° |
| 2026-04-27 08:20 | -9.37941 | -63.36217 | 39931 ft | 452 kts | 168° |
| 2026-04-27 08:21 | -9.44109 | -63.34923 | 39931 ft | 452 kts | 168° |
| 2026-04-27 08:21 | -9.50267 | -63.33633 | 39937 ft | 452 kts | 168° |
| 2026-04-27 08:22 | -9.56420 | -63.32343 | 39932 ft | 451 kts | 168° |
| 2026-04-27 08:22 | -9.62575 | -63.31051 | 39934 ft | 451 kts | 168° |
| 2026-04-27 08:23 | -9.68725 | -63.29760 | 39934 ft | 451 kts | 168° |
| 2026-04-27 08:23 | -9.74826 | -63.28478 | 39934 ft | 450 kts | 168° |
| 2026-04-27 08:24 | -9.80958 | -63.27190 | 39933 ft | 450 kts | 168° |
| 2026-04-27 08:24 | -9.87102 | -63.25899 | 39939 ft | 451 kts | 168° |
| 2026-04-27 08:25 | -9.93254 | -63.24605 | 39938 ft | 451 kts | 168° |
| 2026-04-27 08:25 | -9.99416 | -63.23309 | 39937 ft | 452 kts | 168° |
| 2026-04-27 08:26 | -10.05573 | -63.22013 | 39940 ft | 452 kts | 168° |
| 2026-04-27 08:26 | -10.11737 | -63.20716 | 39940 ft | 453 kts | 168° |
| 2026-04-27 08:27 | -10.17908 | -63.19416 | 39939 ft | 453 kts | 168° |
| 2026-04-27 08:27 | -10.24055 | -63.18121 | 39945 ft | 454 kts | 168° |
| 2026-04-27 08:28 | -10.30244 | -63.16817 | 39940 ft | 455 kts | 168° |
| 2026-04-27 08:28 | -10.36447 | -63.15509 | 39940 ft | 455 kts | 168° |
| 2026-04-27 08:29 | -10.42658 | -63.14199 | 39947 ft | 455 kts | 168° |
| 2026-04-27 08:29 | -10.48867 | -63.12888 | 39942 ft | 456 kts | 168° |
| 2026-04-27 08:30 | -10.55084 | -63.11576 | 39943 ft | 455 kts | 168° |
| 2026-04-27 08:30 | -10.61292 | -63.10265 | 39945 ft | 455 kts | 168° |
| 2026-04-27 08:31 | -10.67498 | -63.08954 | 39945 ft | 455 kts | 168° |
| 2026-04-27 08:31 | -10.73662 | -63.07651 | 39945 ft | 455 kts | 168° |
| 2026-04-27 08:32 | -10.79861 | -63.06340 | 39949 ft | 454 kts | 168° |
| 2026-04-27 08:32 | -10.86048 | -63.05031 | 39947 ft | 454 kts | 168° |
| 2026-04-27 08:33 | -10.92233 | -63.03722 | 39948 ft | 454 kts | 168° |
| 2026-04-27 08:33 | -10.98422 | -63.02411 | 39948 ft | 453 kts | 168° |
| 2026-04-27 08:34 | -11.04605 | -63.01101 | 39951 ft | 453 kts | 168° |
| 2026-04-27 08:34 | -11.10734 | -62.99802 | 39949 ft | 453 kts | 168° |
| 2026-04-27 08:35 | -11.16902 | -62.98499 | 39951 ft | 453 kts | 168° |
| 2026-04-27 08:35 | -11.23076 | -62.97203 | 39951 ft | 453 kts | 168° |
| 2026-04-27 08:36 | -11.29257 | -62.95905 | 39949 ft | 453 kts | 168° |
| 2026-04-27 08:36 | -11.35445 | -62.94602 | 39948 ft | 454 kts | 168° |
| 2026-04-27 08:37 | -11.41633 | -62.93299 | 39952 ft | 454 kts | 168° |
| 2026-04-27 08:37 | -11.47830 | -62.91993 | 39947 ft | 455 kts | 168° |
| 2026-04-27 08:38 | -11.54033 | -62.90673 | 39948 ft | 455 kts | 168° |
| 2026-04-27 08:38 | -11.60234 | -62.89350 | 39948 ft | 455 kts | 168° |
| 2026-04-27 08:39 | -11.66440 | -62.88026 | 39948 ft | 455 kts | 168° |
| 2026-04-27 08:39 | -11.72603 | -62.86712 | 39945 ft | 456 kts | 168° |
| 2026-04-27 08:40 | -11.78814 | -62.85386 | 39944 ft | 456 kts | 169° |
| 2026-04-27 08:40 | -11.85025 | -62.84061 | 39948 ft | 456 kts | 169° |
| 2026-04-27 08:41 | -11.91231 | -62.82735 | 39945 ft | 456 kts | 169° |
| 2026-04-27 08:41 | -11.97438 | -62.81409 | 39945 ft | 456 kts | 169° |
| 2026-04-27 08:42 | -12.03652 | -62.80080 | 39944 ft | 456 kts | 169° |
| 2026-04-27 08:42 | -12.09865 | -62.78752 | 39947 ft | 456 kts | 169° |
| 2026-04-27 08:43 | -12.16076 | -62.77423 | 39947 ft | 456 kts | 169° |
| 2026-04-27 08:43 | -12.22284 | -62.76094 | 39948 ft | 456 kts | 169° |
| 2026-04-27 08:44 | -12.28485 | -62.74765 | 39948 ft | 455 kts | 169° |
| 2026-04-27 08:44 | -12.34688 | -62.73436 | 39948 ft | 455 kts | 169° |
| 2026-04-27 08:45 | -12.40848 | -62.72115 | 39948 ft | 455 kts | 169° |
| 2026-04-27 08:45 | -12.47044 | -62.70786 | 39949 ft | 455 kts | 169° |
| 2026-04-27 08:46 | -12.53288 | -62.69481 | 39947 ft | 455 kts | 171° |
| 2026-04-27 08:46 | -12.59504 | -62.68558 | 39949 ft | 454 kts | 174° |
| 2026-04-27 08:47 | -12.65768 | -62.67736 | 39948 ft | 454 kts | 174° |
| 2026-04-27 08:47 | -12.72028 | -62.66880 | 39948 ft | 454 kts | 173° |
| 2026-04-27 08:48 | -12.78294 | -62.65995 | 39951 ft | 454 kts | 173° |
| 2026-04-27 08:48 | -12.84550 | -62.65105 | 39951 ft | 454 kts | 173° |
| 2026-04-27 08:49 | -12.90805 | -62.64217 | 39951 ft | 454 kts | 173° |
| 2026-04-27 08:49 | -12.97023 | -62.63334 | 39950 ft | 454 kts | 173° |
| 2026-04-27 08:50 | -13.03275 | -62.62446 | 39956 ft | 453 kts | 174° |
| 2026-04-27 08:50 | -13.09478 | -62.61210 | 39958 ft | 454 kts | 168° |
| 2026-04-27 08:51 | -13.15632 | -62.59705 | 39950 ft | 455 kts | 168° |
| 2026-04-27 08:51 | -13.21786 | -62.58207 | 39951 ft | 454 kts | 168° |
| 2026-04-27 08:52 | -13.27949 | -62.56743 | 39955 ft | 454 kts | 168° |
| 2026-04-27 08:52 | -13.34113 | -62.55294 | 39940 ft | 455 kts | 168° |
| 2026-04-27 08:53 | -13.40288 | -62.53843 | 39951 ft | 455 kts | 168° |
| 2026-04-27 08:53 | -13.46434 | -62.52397 | 39961 ft | 456 kts | 169° |
| 2026-04-27 08:54 | -13.52626 | -62.50938 | 39957 ft | 456 kts | 169° |
| 2026-04-27 08:54 | -13.58815 | -62.49479 | 39957 ft | 456 kts | 169° |
| 2026-04-27 08:55 | -13.65003 | -62.48019 | 39957 ft | 456 kts | 169° |
| 2026-04-27 08:55 | -13.71189 | -62.46559 | 39954 ft | 456 kts | 169° |
| 2026-04-27 08:56 | -13.77369 | -62.45103 | 39959 ft | 456 kts | 169° |
| 2026-04-27 08:56 | -13.83555 | -62.43656 | 39960 ft | 456 kts | 169° |
| 2026-04-27 08:57 | -13.92833 | -62.41486 | 39960 ft | 455 kts | 169° |
| 2026-04-27 08:58 | -13.99010 | -62.40038 | 39956 ft | 455 kts | 169° |
| 2026-04-27 08:58 | -14.05194 | -62.38588 | 39964 ft | 456 kts | 169° |
| 2026-04-27 08:59 | -14.11377 | -62.37137 | 39962 ft | 456 kts | 169° |
| 2026-04-27 08:59 | -14.17538 | -62.35690 | 39962 ft | 457 kts | 169° |
| 2026-04-27 09:00 | -14.23735 | -62.34234 | 39963 ft | 457 kts | 169° |
| 2026-04-27 09:00 | -14.29944 | -62.32774 | 39963 ft | 458 kts | 169° |
| 2026-04-27 09:01 | -14.36154 | -62.31313 | 39969 ft | 458 kts | 169° |
| 2026-04-27 09:01 | -14.42378 | -62.29849 | 39965 ft | 459 kts | 169° |
| 2026-04-27 09:02 | -14.48600 | -62.28384 | 39962 ft | 459 kts | 169° |
| 2026-04-27 09:02 | -14.54837 | -62.26914 | 39965 ft | 459 kts | 169° |
| 2026-04-27 09:03 | -14.61031 | -62.25453 | 39968 ft | 459 kts | 169° |
| 2026-04-27 09:03 | -14.67261 | -62.23984 | 39966 ft | 459 kts | 169° |
| 2026-04-27 09:04 | -14.73498 | -62.22512 | 39973 ft | 459 kts | 169° |
| 2026-04-27 09:04 | -14.79733 | -62.21039 | 39971 ft | 459 kts | 169° |
| 2026-04-27 09:05 | -14.85962 | -62.19567 | 39969 ft | 459 kts | 169° |
| 2026-04-27 09:05 | -14.91147 | -62.18341 | 39969 ft | 459 kts | 170° |
| 2026-04-27 09:06 | -14.97382 | -62.16865 | 39971 ft | 459 kts | 170° |
| 2026-04-27 09:06 | -15.03602 | -62.15393 | 39972 ft | 458 kts | 170° |
| 2026-04-27 09:07 | -15.09781 | -62.13929 | 39977 ft | 458 kts | 170° |
| 2026-04-27 09:07 | -15.16040 | -62.12456 | 39977 ft | 458 kts | 170° |
| 2026-04-27 09:08 | -15.22221 | -62.11008 | 39980 ft | 459 kts | 170° |
| 2026-04-27 09:08 | -15.28449 | -62.09546 | 39985 ft | 459 kts | 170° |
| 2026-04-27 09:09 | -15.34676 | -62.08083 | 39987 ft | 459 kts | 170° |
| 2026-04-27 09:09 | -15.40905 | -62.06617 | 39990 ft | 459 kts | 170° |
| 2026-04-27 09:10 | -15.47144 | -62.05149 | 39991 ft | 459 kts | 170° |
| 2026-04-27 09:10 | -15.53377 | -62.03680 | 39991 ft | 460 kts | 170° |
| 2026-04-27 09:11 | -15.59622 | -62.02208 | 40001 ft | 460 kts | 170° |
| 2026-04-27 09:11 | -15.65832 | -62.00744 | 39993 ft | 460 kts | 170° |
| 2026-04-27 09:12 | -15.72123 | -61.99259 | 39994 ft | 460 kts | 170° |
| 2026-04-27 09:12 | -15.78335 | -61.97792 | 40012 ft | 461 kts | 170° |
| 2026-04-27 09:13 | -15.84585 | -61.96315 | 40001 ft | 461 kts | 170° |
| 2026-04-27 09:13 | -15.90839 | -61.94837 | 40003 ft | 461 kts | 170° |
| 2026-04-27 09:14 | -15.97106 | -61.93354 | 40002 ft | 461 kts | 170° |
| 2026-04-27 09:14 | -16.03359 | -61.91874 | 40001 ft | 461 kts | 170° |
| 2026-04-27 09:15 | -16.09610 | -61.90393 | 40009 ft | 461 kts | 170° |
| 2026-04-27 09:15 | -16.15868 | -61.88909 | 40016 ft | 461 kts | 170° |
| 2026-04-27 09:16 | -16.22082 | -61.87435 | 40012 ft | 461 kts | 170° |
| 2026-04-27 09:16 | -16.28342 | -61.85949 | 40018 ft | 461 kts | 170° |
| 2026-04-27 09:17 | -16.34597 | -61.84463 | 40014 ft | 461 kts | 170° |
| 2026-04-27 09:17 | -16.40846 | -61.82978 | 40028 ft | 461 kts | 170° |
| 2026-04-27 09:18 | -16.47096 | -61.81491 | 40019 ft | 460 kts | 170° |
| 2026-04-27 09:18 | -16.53330 | -61.80008 | 40021 ft | 459 kts | 170° |
| 2026-04-27 09:19 | -16.59528 | -61.78548 | 40021 ft | 459 kts | 171° |
| 2026-04-27 09:19 | -16.65752 | -61.77099 | 40023 ft | 458 kts | 171° |
| 2026-04-27 09:20 | -16.71978 | -61.75648 | 40024 ft | 458 kts | 171° |
| 2026-04-27 09:20 | -16.78196 | -61.74196 | 40025 ft | 458 kts | 170° |
| 2026-04-27 09:21 | -16.84407 | -61.72742 | 40025 ft | 457 kts | 170° |
| 2026-04-27 09:21 | -16.90618 | -61.71288 | 40025 ft | 457 kts | 170° |
| 2026-04-27 09:22 | -16.96834 | -61.69831 | 40031 ft | 457 kts | 170° |
| 2026-04-27 09:22 | -17.02999 | -61.68385 | 40023 ft | 457 kts | 170° |
| 2026-04-27 09:23 | -17.09216 | -61.66927 | 40025 ft | 457 kts | 170° |
| 2026-04-27 09:23 | -17.15433 | -61.65467 | 40022 ft | 457 kts | 170° |
| 2026-04-27 09:24 | -17.21641 | -61.64008 | 40023 ft | 457 kts | 170° |
| 2026-04-27 09:24 | -17.27812 | -61.62557 | 40036 ft | 457 kts | 170° |
| 2026-04-27 09:25 | -17.34017 | -61.61097 | 40024 ft | 457 kts | 170° |
| 2026-04-27 09:25 | -17.40234 | -61.59633 | 40025 ft | 457 kts | 170° |
| 2026-04-27 09:26 | -17.46441 | -61.58171 | 40021 ft | 457 kts | 170° |
| 2026-04-27 09:26 | -17.52654 | -61.56706 | 40025 ft | 457 kts | 170° |
| 2026-04-27 09:27 | -17.58862 | -61.55241 | 40034 ft | 457 kts | 170° |
| 2026-04-27 09:27 | -17.65062 | -61.53777 | 40024 ft | 457 kts | 170° |
| 2026-04-27 09:28 | -17.71257 | -61.52313 | 40027 ft | 456 kts | 170° |
| 2026-04-27 09:28 | -17.77415 | -61.50857 | 40024 ft | 456 kts | 170° |
| 2026-04-27 09:29 | -17.83601 | -61.49393 | 40028 ft | 456 kts | 170° |
| 2026-04-27 09:29 | -17.89793 | -61.47927 | 40032 ft | 455 kts | 170° |
| 2026-04-27 09:30 | -17.95980 | -61.46461 | 40036 ft | 455 kts | 170° |
| 2026-04-27 09:30 | -18.02160 | -61.44995 | 40029 ft | 455 kts | 170° |
| 2026-04-27 09:31 | -18.08307 | -61.43537 | 40036 ft | 456 kts | 170° |
| 2026-04-27 09:31 | -18.14501 | -61.42067 | 40032 ft | 456 kts | 170° |
| 2026-04-27 09:32 | -18.20692 | -61.40599 | 40035 ft | 456 kts | 171° |
| 2026-04-27 09:32 | -18.26882 | -61.39130 | 40036 ft | 456 kts | 171° |
| 2026-04-27 09:33 | -18.33071 | -61.37659 | 40035 ft | 456 kts | 171° |
| 2026-04-27 09:33 | -18.39262 | -61.36196 | 40039 ft | 455 kts | 171° |
| 2026-04-27 09:34 | -18.45449 | -61.34747 | 40042 ft | 455 kts | 171° |
| 2026-04-27 09:34 | -18.51640 | -61.33298 | 40038 ft | 456 kts | 171° |
| 2026-04-27 09:35 | -18.57827 | -61.31845 | 40038 ft | 456 kts | 171° |
| 2026-04-27 09:35 | -18.64021 | -61.30389 | 40042 ft | 456 kts | 171° |
| 2026-04-27 09:36 | -18.70215 | -61.28932 | 40041 ft | 456 kts | 171° |
| 2026-04-27 09:36 | -18.76371 | -61.27483 | 40046 ft | 456 kts | 171° |
| 2026-04-27 09:37 | -18.82584 | -61.26019 | 40047 ft | 457 kts | 171° |
| 2026-04-27 09:37 | -18.88789 | -61.24556 | 40046 ft | 457 kts | 171° |
| 2026-04-27 09:38 | -18.95005 | -61.23089 | 40045 ft | 457 kts | 171° |
| 2026-04-27 09:38 | -19.01222 | -61.21621 | 40045 ft | 458 kts | 171° |
| 2026-04-27 09:39 | -19.07442 | -61.20151 | 40045 ft | 458 kts | 171° |
| 2026-04-27 09:39 | -19.13672 | -61.18677 | 40043 ft | 459 kts | 171° |
| 2026-04-27 09:40 | -19.19905 | -61.17202 | 40043 ft | 459 kts | 171° |
| 2026-04-27 09:40 | -19.26104 | -61.15734 | 40044 ft | 459 kts | 171° |
| 2026-04-27 09:41 | -19.32347 | -61.14253 | 40057 ft | 460 kts | 172° |
| 2026-04-27 09:41 | -19.38603 | -61.12769 | 40052 ft | 461 kts | 172° |
| 2026-04-27 09:42 | -19.44863 | -61.11282 | 40036 ft | 461 kts | 172° |
| 2026-04-27 09:42 | -19.51125 | -61.09794 | 40042 ft | 461 kts | 172° |
| 2026-04-27 09:43 | -19.57393 | -61.08285 | 40047 ft | 462 kts | 171° |
| 2026-04-27 09:43 | -19.63661 | -61.06735 | 40045 ft | 462 kts | 171° |
| 2026-04-27 09:44 | -19.69883 | -61.05191 | 40048 ft | 462 kts | 171° |
| 2026-04-27 09:44 | -19.76153 | -61.03639 | 40032 ft | 462 kts | 171° |
| 2026-04-27 09:45 | -19.82422 | -61.02089 | 40039 ft | 462 kts | 171° |
| 2026-04-27 09:45 | -19.88685 | -61.00540 | 40049 ft | 462 kts | 171° |
| 2026-04-27 09:46 | -19.94956 | -60.98988 | 40037 ft | 462 kts | 171° |
| 2026-04-27 09:46 | -20.01222 | -60.97435 | 40036 ft | 463 kts | 171° |
| 2026-04-27 09:47 | -20.07495 | -60.95879 | 40036 ft | 463 kts | 171° |
| 2026-04-27 09:47 | -20.13767 | -60.94323 | 40038 ft | 463 kts | 171° |
| 2026-04-27 09:48 | -20.20040 | -60.92765 | 40045 ft | 463 kts | 171° |
| 2026-04-27 09:48 | -20.26279 | -60.91214 | 40039 ft | 463 kts | 171° |
| 2026-04-27 09:49 | -20.32561 | -60.89651 | 40039 ft | 463 kts | 171° |
| 2026-04-27 09:49 | -20.38843 | -60.88086 | 40041 ft | 463 kts | 171° |
| 2026-04-27 09:50 | -20.45129 | -60.86520 | 40047 ft | 464 kts | 171° |
| 2026-04-27 09:50 | -20.51415 | -60.84952 | 40042 ft | 464 kts | 171° |
| 2026-04-27 09:51 | -20.57709 | -60.83380 | 40040 ft | 464 kts | 171° |
| 2026-04-27 09:51 | -20.63961 | -60.81818 | 40041 ft | 464 kts | 171° |
| 2026-04-27 09:52 | -20.70248 | -60.80246 | 40046 ft | 464 kts | 171° |
| 2026-04-27 09:52 | -20.76538 | -60.78671 | 40052 ft | 464 kts | 171° |
| 2026-04-27 09:53 | -20.82823 | -60.77097 | 40044 ft | 464 kts | 171° |
| 2026-04-27 09:53 | -20.88046 | -60.75787 | 40047 ft | 464 kts | 171° |
| 2026-04-27 09:54 | -20.94333 | -60.74210 | 40038 ft | 464 kts | 171° |
| 2026-04-27 09:54 | -21.00623 | -60.72630 | 40064 ft | 464 kts | 171° |
| 2026-04-27 09:55 | -21.06900 | -60.71052 | 40050 ft | 464 kts | 171° |
| 2026-04-27 09:55 | -21.16344 | -60.68705 | 40050 ft | 464 kts | 172° |
| 2026-04-27 09:56 | -21.22631 | -60.67153 | 40049 ft | 463 kts | 172° |
| 2026-04-27 09:56 | -21.28922 | -60.65596 | 40062 ft | 463 kts | 172° |
| 2026-04-27 09:57 | -21.35170 | -60.64046 | 40054 ft | 464 kts | 172° |
| 2026-04-27 09:57 | -21.41464 | -60.62483 | 40045 ft | 463 kts | 172° |
| 2026-04-27 09:58 | -21.47742 | -60.60922 | 40045 ft | 463 kts | 172° |
| 2026-04-27 09:58 | -21.54029 | -60.59358 | 40046 ft | 463 kts | 172° |
| 2026-04-27 09:59 | -21.60310 | -60.57793 | 40053 ft | 463 kts | 173° |
| 2026-04-27 09:59 | -21.66598 | -60.56226 | 40050 ft | 464 kts | 173° |
| 2026-04-27 10:00 | -21.72883 | -60.54659 | 40055 ft | 464 kts | 173° |
| 2026-04-27 10:00 | -21.79166 | -60.53090 | 40055 ft | 464 kts | 173° |
| 2026-04-27 10:01 | -21.85452 | -60.51519 | 40066 ft | 464 kts | 173° |
| 2026-04-27 10:01 | -21.91704 | -60.49955 | 40056 ft | 465 kts | 173° |
| 2026-04-27 10:02 | -21.98004 | -60.48378 | 40049 ft | 465 kts | 173° |
| 2026-04-27 10:02 | -22.04310 | -60.46798 | 40054 ft | 465 kts | 173° |
| 2026-04-27 10:03 | -22.10617 | -60.45215 | 40070 ft | 465 kts | 173° |
| 2026-04-27 10:03 | -22.16922 | -60.43632 | 40057 ft | 466 kts | 173° |
| 2026-04-27 10:04 | -22.23242 | -60.42044 | 40058 ft | 466 kts | 173° |
| 2026-04-27 10:04 | -22.29569 | -60.40441 | 40066 ft | 467 kts | 173° |
| 2026-04-27 10:05 | -22.35887 | -60.38808 | 40061 ft | 467 kts | 173° |
| 2026-04-27 10:05 | -22.42207 | -60.37169 | 40059 ft | 467 kts | 173° |
| 2026-04-27 10:06 | -22.48499 | -60.35541 | 40060 ft | 467 kts | 173° |
| 2026-04-27 10:06 | -22.54833 | -60.33901 | 40066 ft | 468 kts | 173° |
| 2026-04-27 10:07 | -22.61160 | -60.32263 | 40065 ft | 468 kts | 173° |
| 2026-04-27 10:07 | -22.67494 | -60.30620 | 40073 ft | 468 kts | 173° |
| 2026-04-27 10:08 | -22.73837 | -60.28975 | 40070 ft | 469 kts | 173° |
| 2026-04-27 10:08 | -22.80192 | -60.27323 | 40066 ft | 469 kts | 173° |
| 2026-04-27 10:09 | -22.86541 | -60.25672 | 40071 ft | 470 kts | 173° |
| 2026-04-27 10:09 | -22.92856 | -60.24028 | 40085 ft | 470 kts | 173° |
| 2026-04-27 10:10 | -22.99218 | -60.22376 | 40075 ft | 470 kts | 174° |
| 2026-04-27 10:10 | -23.05582 | -60.20759 | 40074 ft | 469 kts | 174° |
| 2026-04-27 10:11 | -23.11951 | -60.19146 | 40077 ft | 469 kts | 174° |
| 2026-04-27 10:11 | -23.18302 | -60.17533 | 40108 ft | 469 kts | 174° |
| 2026-04-27 10:12 | -23.24668 | -60.15912 | 40086 ft | 469 kts | 174° |
| 2026-04-27 10:12 | -23.31029 | -60.14288 | 40083 ft | 470 kts | 174° |
| 2026-04-27 10:13 | -23.37394 | -60.12662 | 40088 ft | 469 kts | 174° |
| 2026-04-27 10:13 | -23.43714 | -60.11046 | 40111 ft | 469 kts | 174° |
| 2026-04-27 10:14 | -23.50086 | -60.09416 | 40102 ft | 470 kts | 174° |
| 2026-04-27 10:14 | -23.56463 | -60.07783 | 40098 ft | 471 kts | 174° |
| 2026-04-27 10:15 | -23.62852 | -60.06145 | 40098 ft | 471 kts | 174° |
| 2026-04-27 10:15 | -23.69248 | -60.04503 | 40099 ft | 472 kts | 174° |
| 2026-04-27 10:16 | -23.75652 | -60.02858 | 40104 ft | 473 kts | 174° |
| 2026-04-27 10:16 | -23.82022 | -60.01219 | 40103 ft | 473 kts | 174° |
| 2026-04-27 10:17 | -23.88443 | -59.99566 | 40106 ft | 474 kts | 174° |
| 2026-04-27 10:17 | -23.94867 | -59.97910 | 40112 ft | 474 kts | 174° |
| 2026-04-27 10:18 | -24.01287 | -59.96254 | 40114 ft | 474 kts | 175° |
| 2026-04-27 10:18 | -24.07681 | -59.94602 | 40117 ft | 474 kts | 175° |
| 2026-04-27 10:19 | -24.14103 | -59.92950 | 40119 ft | 473 kts | 175° |
| 2026-04-27 10:19 | -24.20507 | -59.91304 | 40119 ft | 472 kts | 175° |
| 2026-04-27 10:20 | -24.26901 | -59.89659 | 40131 ft | 472 kts | 175° |
| 2026-04-27 10:20 | -24.33296 | -59.88010 | 40122 ft | 472 kts | 175° |
| 2026-04-27 10:21 | -24.39639 | -59.86373 | 40132 ft | 471 kts | 175° |
| 2026-04-27 10:21 | -24.46022 | -59.84724 | 40136 ft | 471 kts | 175° |
| 2026-04-27 10:22 | -24.52400 | -59.83075 | 40137 ft | 471 kts | 175° |
| 2026-04-27 10:22 | -24.58772 | -59.81425 | 40137 ft | 471 kts | 175° |
| 2026-04-27 10:23 | -24.65148 | -59.79773 | 40142 ft | 471 kts | 175° |
| 2026-04-27 10:23 | -24.71526 | -59.78118 | 40147 ft | 471 kts | 175° |
| 2026-04-27 10:24 | -24.77910 | -59.76460 | 40162 ft | 472 kts | 176° |
| 2026-04-27 10:24 | -24.84301 | -59.74799 | 40156 ft | 472 kts | 176° |
| 2026-04-27 10:25 | -24.90700 | -59.73134 | 40150 ft | 473 kts | 176° |
| 2026-04-27 10:25 | -24.97059 | -59.71476 | 40152 ft | 473 kts | 176° |
| 2026-04-27 10:26 | -25.03472 | -59.69804 | 40155 ft | 473 kts | 176° |
| 2026-04-27 10:26 | -25.09883 | -59.68121 | 40156 ft | 473 kts | 176° |
| 2026-04-27 10:27 | -25.16291 | -59.66430 | 40164 ft | 474 kts | 176° |
| 2026-04-27 10:27 | -25.22710 | -59.64736 | 40164 ft | 474 kts | 176° |
| 2026-04-27 10:28 | -25.29126 | -59.63041 | 40173 ft | 475 kts | 176° |
| 2026-04-27 10:28 | -25.35551 | -59.61343 | 40172 ft | 475 kts | 176° |
| 2026-04-27 10:29 | -25.41985 | -59.59639 | 40155 ft | 475 kts | 176° |
| 2026-04-27 10:29 | -25.48408 | -59.57937 | 40166 ft | 475 kts | 176° |
| 2026-04-27 10:30 | -25.54841 | -59.56233 | 40181 ft | 476 kts | 176° |
| 2026-04-27 10:30 | -25.61239 | -59.54535 | 40180 ft | 476 kts | 176° |
| 2026-04-27 10:31 | -25.67679 | -59.52821 | 40172 ft | 476 kts | 176° |
| 2026-04-27 10:31 | -25.74118 | -59.51107 | 40183 ft | 476 kts | 176° |
| 2026-04-27 10:32 | -25.80562 | -59.49391 | 40181 ft | 477 kts | 177° |
| 2026-04-27 10:32 | -25.87019 | -59.47669 | 40181 ft | 477 kts | 177° |
| 2026-04-27 10:33 | -25.93474 | -59.45945 | 40177 ft | 477 kts | 177° |
| 2026-04-27 10:33 | -25.99933 | -59.44218 | 40178 ft | 477 kts | 177° |
| 2026-04-27 10:34 | -26.06393 | -59.42490 | 40185 ft | 478 kts | 177° |
| 2026-04-27 10:34 | -26.12817 | -59.40768 | 40182 ft | 478 kts | 177° |
| 2026-04-27 10:35 | -26.19283 | -59.39034 | 40186 ft | 478 kts | 177° |
| 2026-04-27 10:35 | -26.25746 | -59.37298 | 40183 ft | 477 kts | 177° |
| 2026-04-27 10:36 | -26.32210 | -59.35561 | 40195 ft | 478 kts | 178° |
| 2026-04-27 10:36 | -26.38677 | -59.33820 | 40189 ft | 478 kts | 178° |
| 2026-04-27 10:37 | -26.45155 | -59.32074 | 40190 ft | 478 kts | 178° |
| 2026-04-27 10:37 | -26.51619 | -59.30329 | 40224 ft | 477 kts | 178° |
| 2026-04-27 10:38 | -26.58040 | -59.28596 | 40207 ft | 478 kts | 178° |
| 2026-04-27 10:38 | -26.64511 | -59.26870 | 40199 ft | 477 kts | 178° |
| 2026-04-27 10:39 | -26.70972 | -59.25182 | 40195 ft | 477 kts | 178° |
| 2026-04-27 10:39 | -26.77425 | -59.23495 | 40237 ft | 476 kts | 179° |
| 2026-04-27 10:40 | -26.83887 | -59.21798 | 40209 ft | 477 kts | 179° |
| 2026-04-27 10:40 | -26.90344 | -59.20097 | 40204 ft | 476 kts | 179° |
| 2026-04-27 10:41 | -26.95707 | -59.18682 | 40210 ft | 476 kts | 179° |
| 2026-04-27 10:41 | -27.03202 | -59.16703 | 40220 ft | 476 kts | 179° |
| 2026-04-27 10:42 | -27.08556 | -59.15289 | 40223 ft | 475 kts | 179° |
| 2026-04-27 10:42 | -27.15007 | -59.13583 | 40212 ft | 475 kts | 179° |
| 2026-04-27 10:43 | -27.21436 | -59.11880 | 40215 ft | 474 kts | 179° |
| 2026-04-27 10:43 | -27.27861 | -59.10176 | 40244 ft | 475 kts | 179° |
| 2026-04-27 10:44 | -27.34294 | -59.08468 | 40230 ft | 475 kts | 179° |
| 2026-04-27 10:44 | -27.40722 | -59.06759 | 40217 ft | 474 kts | 179° |
| 2026-04-27 10:45 | -27.47139 | -59.05359 | 40183 ft | 458 kts | 188° |
| 2026-04-27 10:45 | -27.53430 | -59.04896 | 40181 ft | 454 kts | 191° |
| 2026-04-27 10:46 | -27.59744 | -59.04527 | 40194 ft | 454 kts | 190° |
| 2026-04-27 10:46 | -27.66065 | -59.04102 | 40203 ft | 456 kts | 190° |
| 2026-04-27 10:47 | -27.72399 | -59.03635 | 40221 ft | 456 kts | 189° |
| 2026-04-27 10:47 | -27.78749 | -59.03156 | 40233 ft | 458 kts | 190° |
| 2026-04-27 10:48 | -27.85108 | -59.02676 | 40236 ft | 458 kts | 190° |
| 2026-04-27 10:48 | -27.91465 | -59.02196 | 40230 ft | 458 kts | 190° |
| 2026-04-27 10:49 | -27.97837 | -59.01716 | 40237 ft | 458 kts | 190° |
| 2026-04-27 10:49 | -28.04214 | -59.01237 | 40240 ft | 460 kts | 190° |
| 2026-04-27 10:50 | -28.10552 | -59.00758 | 40243 ft | 460 kts | 190° |
| 2026-04-27 10:50 | -28.16939 | -59.00275 | 40241 ft | 460 kts | 190° |
| 2026-04-27 10:51 | -28.23329 | -58.99791 | 40241 ft | 460 kts | 190° |
| 2026-04-27 10:51 | -28.29723 | -58.99307 | 40253 ft | 461 kts | 191° |
| 2026-04-27 10:52 | -28.36119 | -58.98821 | 40251 ft | 460 kts | 191° |
| 2026-04-27 10:52 | -28.42521 | -58.98325 | 40252 ft | 460 kts | 191° |
| 2026-04-27 10:53 | -28.52101 | -58.97571 | 40274 ft | 460 kts | 191° |
| 2026-04-27 10:54 | -28.58479 | -58.97071 | 40257 ft | 459 kts | 191° |
| 2026-04-27 10:54 | -28.64854 | -58.96570 | 40249 ft | 458 kts | 191° |
| 2026-04-27 10:55 | -28.71174 | -58.96074 | 40245 ft | 458 kts | 191° |
| 2026-04-27 10:55 | -28.77526 | -58.95575 | 40291 ft | 458 kts | 191° |
| 2026-04-27 10:56 | -28.83889 | -58.95075 | 40262 ft | 458 kts | 191° |
| 2026-04-27 10:56 | -28.90246 | -58.94575 | 40255 ft | 457 kts | 191° |
| 2026-04-27 10:57 | -28.96598 | -58.94081 | 40262 ft | 457 kts | 191° |
| 2026-04-27 10:57 | -29.02948 | -58.93588 | 40261 ft | 458 kts | 192° |
| 2026-04-27 10:58 | -29.09298 | -58.93093 | 40263 ft | 457 kts | 192° |
| 2026-04-27 10:58 | -29.15650 | -58.92596 | 40255 ft | 457 kts | 192° |
| 2026-04-27 10:59 | -29.21987 | -58.92100 | 40259 ft | 456 kts | 192° |
| 2026-04-27 10:59 | -29.28290 | -58.91608 | 40257 ft | 457 kts | 192° |
| 2026-04-27 11:00 | -29.37809 | -58.90861 | 40253 ft | 457 kts | 192° |
| 2026-04-27 11:00 | -29.44151 | -58.90362 | 40256 ft | 456 kts | 192° |
| 2026-04-27 11:01 | -29.50498 | -58.89864 | 40273 ft | 457 kts | 191° |
| 2026-04-27 11:01 | -29.56848 | -58.89364 | 40260 ft | 457 kts | 191° |
| 2026-04-27 11:02 | -29.63195 | -58.88863 | 40248 ft | 457 kts | 191° |
| 2026-04-27 11:02 | -29.69490 | -58.88367 | 40252 ft | 456 kts | 191° |
| 2026-04-27 11:03 | -29.75825 | -58.87874 | 40271 ft | 457 kts | 191° |
| 2026-04-27 11:03 | -29.82176 | -58.87382 | 40260 ft | 456 kts | 191° |
| 2026-04-27 11:04 | -29.88510 | -58.86889 | 40256 ft | 456 kts | 191° |
| 2026-04-27 11:04 | -29.94843 | -58.86395 | 40251 ft | 456 kts | 191° |
| 2026-04-27 11:05 | -30.01177 | -58.85900 | 40250 ft | 455 kts | 191° |
| 2026-04-27 11:05 | -30.07498 | -58.85406 | 40250 ft | 455 kts | 191° |
| 2026-04-27 11:06 | -30.13818 | -58.84912 | 40254 ft | 455 kts | 191° |
| 2026-04-27 11:06 | -30.20136 | -58.84417 | 40303 ft | 455 kts | 191° |
| 2026-04-27 11:07 | -30.26456 | -58.83922 | 40254 ft | 456 kts | 191° |
| 2026-04-27 11:07 | -30.32752 | -58.83427 | 40247 ft | 455 kts | 191° |
| 2026-04-27 11:08 | -30.39071 | -58.82929 | 40245 ft | 455 kts | 191° |
| 2026-04-27 11:08 | -30.45395 | -58.82431 | 40280 ft | 455 kts | 190° |
| 2026-04-27 11:09 | -30.51713 | -58.81928 | 40254 ft | 455 kts | 190° |
| 2026-04-27 11:09 | -30.58042 | -58.81381 | 40238 ft | 456 kts | 190° |
| 2026-04-27 11:10 | -30.64363 | -58.80825 | 40243 ft | 455 kts | 190° |
| 2026-04-27 11:10 | -30.70629 | -58.80278 | 40270 ft | 455 kts | 189° |
| 2026-04-27 11:11 | -30.76948 | -58.79731 | 40251 ft | 455 kts | 189° |
| 2026-04-27 11:11 | -30.83300 | -58.79179 | 40241 ft | 455 kts | 189° |
| 2026-04-27 11:12 | -30.89569 | -58.78634 | 40238 ft | 454 kts | 189° |
| 2026-04-27 11:12 | -30.95868 | -58.78092 | 40244 ft | 453 kts | 189° |
| 2026-04-27 11:13 | -31.02153 | -58.77595 | 40238 ft | 452 kts | 189° |
| 2026-04-27 11:13 | -31.08440 | -58.77106 | 40236 ft | 452 kts | 189° |
| 2026-04-27 11:14 | -31.14713 | -58.76614 | 40291 ft | 452 kts | 189° |
| 2026-04-27 11:14 | -31.20999 | -58.76117 | 40243 ft | 452 kts | 189° |
| 2026-04-27 11:15 | -31.27267 | -58.75619 | 40233 ft | 452 kts | 189° |
| 2026-04-27 11:15 | -31.33549 | -58.75119 | 40231 ft | 451 kts | 189° |
| 2026-04-27 11:16 | -31.39769 | -58.74624 | 40252 ft | 451 kts | 188° |
| 2026-04-27 11:16 | -31.46027 | -58.74126 | 40237 ft | 450 kts | 188° |
| 2026-04-27 11:17 | -31.52282 | -58.73627 | 40230 ft | 450 kts | 188° |
| 2026-04-27 11:17 | -31.58525 | -58.73128 | 40229 ft | 450 kts | 188° |
| 2026-04-27 11:18 | -31.64773 | -58.72628 | 40234 ft | 450 kts | 188° |
| 2026-04-27 11:18 | -31.71018 | -58.72127 | 40229 ft | 449 kts | 188° |
| 2026-04-27 11:19 | -31.77259 | -58.71627 | 40223 ft | 449 kts | 188° |
| 2026-04-27 11:19 | -31.83494 | -58.71126 | 40220 ft | 448 kts | 188° |
| 2026-04-27 11:20 | -31.89721 | -58.70625 | 40225 ft | 448 kts | 188° |
| 2026-04-27 11:20 | -31.95943 | -58.70124 | 40215 ft | 448 kts | 188° |
| 2026-04-27 11:21 | -32.02129 | -58.69625 | 40212 ft | 448 kts | 188° |
| 2026-04-27 11:21 | -32.08341 | -58.69123 | 40253 ft | 447 kts | 188° |
| 2026-04-27 11:22 | -32.14552 | -58.68621 | 40219 ft | 447 kts | 187° |
| 2026-04-27 11:22 | -32.20756 | -58.68118 | 40209 ft | 447 kts | 187° |
| 2026-04-27 11:23 | -32.26960 | -58.67615 | 40206 ft | 446 kts | 188° |
| 2026-04-27 11:23 | -32.33148 | -58.67112 | 40204 ft | 445 kts | 188° |
| 2026-04-27 11:24 | -32.39341 | -58.66599 | 40203 ft | 445 kts | 187° |
| 2026-04-27 11:24 | -32.45525 | -58.66079 | 40198 ft | 445 kts | 187° |
| 2026-04-27 11:25 | -32.51708 | -58.65559 | 40196 ft | 445 kts | 187° |
| 2026-04-27 11:25 | -32.57855 | -58.65043 | 40195 ft | 446 kts | 187° |
| 2026-04-27 11:26 | -32.64042 | -58.64523 | 40186 ft | 445 kts | 187° |
| 2026-04-27 11:26 | -32.70220 | -58.64002 | 40190 ft | 445 kts | 187° |
| 2026-04-27 11:27 | -32.76405 | -58.63481 | 40212 ft | 445 kts | 187° |
| 2026-04-27 11:27 | -32.82590 | -58.62958 | 40175 ft | 445 kts | 187° |
| 2026-04-27 11:28 | -32.87731 | -58.62524 | 40164 ft | 445 kts | 187° |
| 2026-04-27 11:28 | -32.93913 | -58.62001 | 40155 ft | 444 kts | 187° |
| 2026-04-27 11:29 | -33.00041 | -58.61485 | 40172 ft | 443 kts | 187° |
| 2026-04-27 11:29 | -33.03079 | -58.61500 | 40157 ft | 431 kts | 195° |
| 2026-04-27 11:29 | -33.06055 | -58.61814 | 40170 ft | 429 kts | 197° |
| 2026-04-27 11:30 | -33.11972 | -58.62586 | 40161 ft | 427 kts | 197° |
| 2026-04-27 11:30 | -33.17881 | -58.63343 | 40158 ft | 427 kts | 197° |
| 2026-04-27 11:31 | -33.23801 | -58.64056 | 40180 ft | 428 kts | 196° |
| 2026-04-27 11:31 | -33.29732 | -58.64752 | 40156 ft | 428 kts | 195° |
| 2026-04-27 11:32 | -33.35661 | -58.65444 | 40145 ft | 428 kts | 195° |
| 2026-04-27 11:32 | -33.41578 | -58.66136 | 40145 ft | 427 kts | 195° |
| 2026-04-27 11:33 | -33.47495 | -58.66831 | 40152 ft | 427 kts | 195° |
| 2026-04-27 11:33 | -33.53417 | -58.67528 | 40146 ft | 427 kts | 195° |
| 2026-04-27 11:34 | -33.59344 | -58.68225 | 40137 ft | 428 kts | 195° |
| 2026-04-27 11:34 | -33.65214 | -58.68915 | 40113 ft | 420 kts | 195° |
| 2026-04-27 11:35 | -33.68068 | -58.69240 | 40149 ft | 404 kts | 196° |
| 2026-04-27 11:35 | -33.70814 | -58.69554 | 40128 ft | 389 kts | 196° |
| 2026-04-27 11:35 | -33.73456 | -58.69861 | 40112 ft | 375 kts | 196° |
| 2026-04-27 11:35 | -33.76004 | -58.70161 | 40107 ft | 361 kts | 197° |
| 2026-04-27 11:36 | -33.80913 | -58.70757 | 40129 ft | 357 kts | 197° |
| 2026-04-27 11:36 | -33.83419 | -58.71071 | 40142 ft | 368 kts | 197° |
| 2026-04-27 11:36 | -33.85997 | -58.71386 | 40139 ft | 376 kts | 196° |
| 2026-04-27 11:37 | -33.91240 | -58.72002 | 40127 ft | 378 kts | 196° |
| 2026-04-27 11:37 | -33.96401 | -58.72568 | 40112 ft | 366 kts | 195° |
| 2026-04-27 11:38 | -34.01463 | -58.73106 | 40119 ft | 367 kts | 195° |
| 2026-04-27 11:38 | -34.06574 | -58.73661 | 40121 ft | 370 kts | 195° |
| 2026-04-27 11:39 | -34.11717 | -58.74217 | 40112 ft | 372 kts | 195° |
| 2026-04-27 11:39 | -34.16848 | -58.74770 | 40138 ft | 372 kts | 195° |
| 2026-04-27 11:40 | -34.21981 | -58.75322 | 40103 ft | 368 kts | 195° |
| 2026-04-27 11:40 | -34.27060 | -58.75870 | 40096 ft | 364 kts | 195° |
| 2026-04-27 11:41 | -34.32072 | -58.76414 | 40093 ft | 360 kts | 195° |
| 2026-04-27 11:41 | -34.37040 | -58.76955 | 40095 ft | 357 kts | 195° |
| 2026-04-27 11:42 | -34.41995 | -58.77497 | 40106 ft | 358 kts | 195° |
| 2026-04-27 11:42 | -34.46961 | -58.78039 | 40108 ft | 358 kts | 195° |
| 2026-04-27 11:43 | -34.51983 | -58.78318 | 40084 ft | 376 kts | 179° |
| 2026-04-27 11:43 | -34.54524 | -58.77270 | 40107 ft | 399 kts | 160° |
| 2026-04-27 11:43 | -34.56771 | -58.75151 | 40100 ft | 422 kts | 139° |
| 2026-04-27 11:44 | -34.58363 | -58.72077 | 40098 ft | 442 kts | 117° |
| 2026-04-27 11:44 | -34.59351 | -58.68523 | 40121 ft | 447 kts | 112° |
| 2026-04-27 11:44 | -34.61196 | -58.61275 | 40108 ft | 450 kts | 113° |
| 2026-04-27 11:45 | -34.62800 | -58.55248 | 40102 ft | 452 kts | 113° |
| 2026-04-27 11:45 | -34.65056 | -58.46790 | 40067 ft | 453 kts | 113° |
| 2026-04-27 11:46 | -34.66996 | -58.39490 | 40072 ft | 454 kts | 113° |
| 2026-04-27 11:46 | -34.68929 | -58.32189 | 40094 ft | 453 kts | 113° |
| 2026-04-27 11:47 | -34.70858 | -58.24889 | 40080 ft | 453 kts | 113° |
| 2026-04-27 11:47 | -34.72764 | -58.17652 | 40062 ft | 451 kts | 113° |
| 2026-04-27 11:48 | -34.74675 | -58.10393 | 40063 ft | 449 kts | 113° |
| 2026-04-27 11:48 | -34.76579 | -58.03162 | 40059 ft | 448 kts | 113° |
| 2026-04-27 11:49 | -34.78478 | -57.95946 | 40057 ft | 448 kts | 113° |
| 2026-04-27 11:49 | -34.80376 | -57.88724 | 40060 ft | 449 kts | 113° |
| 2026-04-27 11:50 | -34.82273 | -57.81472 | 40060 ft | 450 kts | 113° |
| 2026-04-27 11:50 | -34.84170 | -57.74209 | 40056 ft | 450 kts | 113° |
| 2026-04-27 11:51 | -34.86057 | -57.66975 | 40053 ft | 451 kts | 113° |
| 2026-04-27 11:52 | -34.88930 | -57.56059 | 40056 ft | 451 kts | 113° |
| 2026-04-27 11:52 | -34.90859 | -57.48772 | 40057 ft | 453 kts | 114° |
| 2026-04-27 11:53 | -34.92779 | -57.41465 | 40058 ft | 453 kts | 113° |
| 2026-04-27 11:53 | -34.94701 | -57.34156 | 40038 ft | 452 kts | 113° |
| 2026-04-27 11:54 | -34.96637 | -57.26869 | 40043 ft | 452 kts | 113° |
| 2026-04-27 11:54 | -34.98579 | -57.19588 | 40047 ft | 451 kts | 113° |
| 2026-04-27 11:55 | -35.00518 | -57.12303 | 40069 ft | 452 kts | 114° |
| 2026-04-27 11:55 | -35.02447 | -57.04997 | 40044 ft | 452 kts | 113° |
| 2026-04-27 11:56 | -35.04365 | -56.97744 | 40036 ft | 451 kts | 113° |
| 2026-04-27 11:56 | -35.06294 | -56.90456 | 40027 ft | 451 kts | 113° |
| 2026-04-27 11:57 | -35.08223 | -56.83169 | 40004 ft | 451 kts | 113° |
| 2026-04-27 11:57 | -35.10172 | -56.75886 | 40053 ft | 451 kts | 114° |
| 2026-04-27 11:58 | -35.12123 | -56.68584 | 40024 ft | 452 kts | 113° |
| 2026-04-27 11:58 | -35.14058 | -56.61317 | 40010 ft | 453 kts | 113° |
| 2026-04-27 11:59 | -35.16007 | -56.53999 | 39998 ft | 453 kts | 113° |
| 2026-04-27 11:59 | -35.17978 | -56.46664 | 39992 ft | 454 kts | 113° |
| 2026-04-27 12:00 | -35.19955 | -56.39333 | 39995 ft | 454 kts | 114° |
| 2026-04-27 12:00 | -35.21932 | -56.31982 | 39985 ft | 455 kts | 113° |
| 2026-04-27 12:01 | -35.23956 | -56.24515 | 39999 ft | 473 kts | 113° |
| 2026-04-27 12:01 | -35.25019 | -56.20656 | 39993 ft | 484 kts | 113° |
| 2026-04-27 12:01 | -35.26111 | -56.16720 | 39988 ft | 494 kts | 113° |
| 2026-04-27 12:02 | -35.28364 | -56.08671 | 39980 ft | 511 kts | 113° |
| 2026-04-27 12:02 | -35.30707 | -56.00360 | 39969 ft | 518 kts | 113° |
| 2026-04-27 12:03 | -35.33057 | -55.92020 | 39944 ft | 518 kts | 113° |
| 2026-04-27 12:03 | -35.35402 | -55.83688 | 39932 ft | 517 kts | 113° |
| 2026-04-27 12:04 | -35.37739 | -55.75382 | 39925 ft | 515 kts | 113° |
| 2026-04-27 12:04 | -35.40082 | -55.67092 | 39945 ft | 514 kts | 113° |
| 2026-04-27 12:05 | -35.42407 | -55.58873 | 39927 ft | 513 kts | 113° |
| 2026-04-27 12:05 | -35.44742 | -55.50622 | 39909 ft | 512 kts | 113° |
| 2026-04-27 12:06 | -35.47086 | -55.42374 | 39902 ft | 511 kts | 113° |
| 2026-04-27 12:06 | -35.49430 | -55.34145 | 39938 ft | 510 kts | 114° |
| 2026-04-27 12:07 | -35.49482 | -55.33965 | 39933 ft | 510 kts | 113° |